createdAt,value
2017-10-19T00:01:26.118Z,93.62
2017-10-19T00:03:54.493Z,93.99
2017-10-19T00:06:22.864Z,93.62
2017-10-19T00:08:51.229Z,93.83
2017-10-19T00:11:19.590Z,93.10
2017-10-19T00:13:47.968Z,92.59
2017-10-19T00:16:16.351Z,93.06
2017-10-19T00:18:44.737Z,93.50
2017-10-19T00:21:13.106Z,93.67
2017-10-19T00:23:41.483Z,94.06
2017-10-19T00:26:09.850Z,93.72
2017-10-19T00:28:38.213Z,92.78
2017-10-19T00:31:06.580Z,92.58
2017-10-19T00:33:34.955Z,92.50
2017-10-19T00:36:03.316Z,93.33
2017-10-19T00:38:31.686Z,92.32
2017-10-19T00:41:00.057Z,91.97
2017-10-19T00:43:28.429Z,91.47
2017-10-19T00:45:56.809Z,91.48
2017-10-19T00:48:25.185Z,90.99
2017-10-19T00:50:53.550Z,90.88
2017-10-19T00:53:21.918Z,91.03
2017-10-19T00:55:50.294Z,90.73
2017-10-19T00:58:18.669Z,91.55
2017-10-19T01:00:47.028Z,91.27
2017-10-19T01:03:15.395Z,90.63
2017-10-19T01:05:44.529Z,91.11
2017-10-19T01:08:12.916Z,90.95
2017-10-19T01:10:41.286Z,90.81
2017-10-19T01:13:09.662Z,90.38
2017-10-19T01:15:38.035Z,90.59
2017-10-19T01:18:06.418Z,90.54
2017-10-19T01:20:35.112Z,90.71
2017-10-19T01:23:03.482Z,90.71
2017-10-19T01:25:31.857Z,90.61
2017-10-19T01:28:00.236Z,91.51
2017-10-19T01:30:28.599Z,91.31
2017-10-19T01:32:56.976Z,90.38
2017-10-19T01:35:25.345Z,91.08
2017-10-19T01:37:53.760Z,91.24
2017-10-19T01:40:22.128Z,92.45
2017-10-19T01:42:50.604Z,91.96
2017-10-19T01:45:18.965Z,91.55
2017-10-19T01:47:47.348Z,91.74
2017-10-19T01:50:15.711Z,93.94
2017-10-19T01:52:44.061Z,93.93
2017-10-19T01:55:12.433Z,92.99
2017-10-19T01:57:40.784Z,92.90
2017-10-19T02:00:09.152Z,92.00
2017-10-19T02:02:37.510Z,91.62
2017-10-19T02:05:05.872Z,91.67
2017-10-19T02:07:34.242Z,91.81
2017-10-19T02:10:03.449Z,92.58
2017-10-19T02:12:32.585Z,93.11
2017-10-19T02:15:00.938Z,93.09
2017-10-19T02:17:29.293Z,93.77
2017-10-19T02:19:57.656Z,94.35
2017-10-19T02:22:26.028Z,94.56
2017-10-19T02:24:54.404Z,93.49
2017-10-19T02:27:22.797Z,93.83
2017-10-19T02:29:51.163Z,93.68
2017-10-19T02:32:19.527Z,94.35
2017-10-19T02:34:47.901Z,94.47
2017-10-19T02:37:19.881Z,94.30
2017-10-19T02:39:48.433Z,93.27
2017-10-19T02:42:16.787Z,93.45
2017-10-19T02:44:45.136Z,92.92
2017-10-19T02:47:13.504Z,92.50
2017-10-19T02:49:41.860Z,92.08
2017-10-19T02:52:10.218Z,91.40
2017-10-19T02:54:38.588Z,91.29
2017-10-19T02:57:06.955Z,91.27
2017-10-19T02:59:35.337Z,90.98
2017-10-19T03:02:03.693Z,91.32
2017-10-19T03:04:32.804Z,91.38
2017-10-19T03:07:01.157Z,91.13
2017-10-19T03:09:29.533Z,91.02
2017-10-19T03:11:57.905Z,91.05
2017-10-19T03:14:26.320Z,91.10
2017-10-19T03:16:54.680Z,91.70
2017-10-19T03:19:23.054Z,91.61
2017-10-19T03:21:51.437Z,91.55
2017-10-19T03:24:19.798Z,92.02
2017-10-19T03:26:48.551Z,91.67
2017-10-19T03:29:16.934Z,91.57
2017-10-19T03:31:46.433Z,92.24
2017-10-19T03:34:14.786Z,92.81
2017-10-19T03:36:43.141Z,92.82
2017-10-19T03:39:12.261Z,92.84
2017-10-19T03:41:40.626Z,92.92
2017-10-19T03:44:08.986Z,94.13
2017-10-19T03:46:37.349Z,94.43
2017-10-19T03:49:05.712Z,93.91
2017-10-19T03:51:34.071Z,94.65
2017-10-19T03:54:02.458Z,94.17
2017-10-19T03:56:30.845Z,94.17
2017-10-19T03:58:59.225Z,93.70
2017-10-19T04:01:27.588Z,94.01
2017-10-19T04:03:55.945Z,93.72
2017-10-19T04:06:24.324Z,93.96
2017-10-19T04:08:52.682Z,94.26
2017-10-19T04:11:21.826Z,93.51
2017-10-19T04:13:50.208Z,93.25
2017-10-19T04:16:18.585Z,94.15
2017-10-19T04:18:46.960Z,93.42
2017-10-19T04:21:15.345Z,92.99
2017-10-19T04:23:43.704Z,91.98
2017-10-19T04:26:12.052Z,91.83
2017-10-19T04:28:40.408Z,92.18
2017-10-19T04:31:08.766Z,91.88
2017-10-19T04:33:37.128Z,91.79
2017-10-19T04:36:05.482Z,91.58
2017-10-19T04:38:33.854Z,93.20
2017-10-19T04:41:02.214Z,94.34
2017-10-19T04:43:31.334Z,93.57
2017-10-19T04:45:59.707Z,93.42
2017-10-19T04:48:28.077Z,93.37
2017-10-19T04:50:56.442Z,93.76
2017-10-19T04:53:24.815Z,93.28
2017-10-19T04:55:53.182Z,92.62
2017-10-19T04:58:21.555Z,92.96
2017-10-19T05:00:49.914Z,92.47
2017-10-19T05:03:18.272Z,92.18
2017-10-19T05:05:46.633Z,92.06
2017-10-19T05:08:14.991Z,92.64
2017-10-19T05:10:44.131Z,93.39
2017-10-19T05:13:12.495Z,92.55
2017-10-19T05:15:40.859Z,92.08
2017-10-19T05:18:09.220Z,91.26
2017-10-19T05:20:37.576Z,91.34
2017-10-19T05:23:05.940Z,91.31
2017-10-19T05:25:34.312Z,91.35
2017-10-19T05:28:02.681Z,91.31
2017-10-19T05:30:31.053Z,92.30
2017-10-19T05:32:59.432Z,93.34
2017-10-19T05:35:27.789Z,94.52
2017-10-19T05:37:57.021Z,94.60
2017-10-19T05:40:25.398Z,93.96
2017-10-19T05:42:53.760Z,93.59
2017-10-19T05:45:22.120Z,93.28
2017-10-19T05:47:50.488Z,93.02
2017-10-19T05:50:18.844Z,93.74
2017-10-19T05:52:47.975Z,94.07
2017-10-19T05:55:16.329Z,95.01
2017-10-19T05:57:45.447Z,94.59
2017-10-19T06:00:13.814Z,94.32
2017-10-19T06:02:42.188Z,93.84
2017-10-19T06:05:10.571Z,93.27
2017-10-19T06:07:38.932Z,93.99
2017-10-19T06:10:08.549Z,93.78
2017-10-19T06:12:36.923Z,93.10
2017-10-19T06:15:05.288Z,93.37
2017-10-19T06:17:34.583Z,92.61
2017-10-19T06:20:02.945Z,92.44
2017-10-19T06:22:31.312Z,92.18
2017-10-19T06:24:59.665Z,92.77
2017-10-19T06:27:28.030Z,93.02
2017-10-19T06:29:56.385Z,94.07
2017-10-19T06:32:24.749Z,94.38
2017-10-19T06:34:53.117Z,94.37
2017-10-19T06:37:21.494Z,94.34
2017-10-19T06:39:49.865Z,93.57
2017-10-19T06:42:18.251Z,93.46
2017-10-19T06:44:46.627Z,93.55
2017-10-19T06:47:15.003Z,94.46
2017-10-19T06:49:43.376Z,93.33
2017-10-19T06:52:11.753Z,93.02
2017-10-19T06:54:40.116Z,93.47
2017-10-19T06:57:08.479Z,94.61
2017-10-19T06:59:36.852Z,94.06
2017-10-19T07:02:05.209Z,93.79
2017-10-19T07:04:33.581Z,92.77
2017-10-19T07:07:01.949Z,92.32
2017-10-19T07:09:30.300Z,92.52
2017-10-19T07:11:58.662Z,92.01
2017-10-19T07:14:27.030Z,91.63
2017-10-19T07:16:55.401Z,91.30
2017-10-19T07:19:23.774Z,91.12
2017-10-19T07:21:52.157Z,91.11
2017-10-19T07:24:20.545Z,90.76
2017-10-19T07:26:48.909Z,90.56
2017-10-19T07:29:17.298Z,90.21
2017-10-19T07:31:45.668Z,89.62
2017-10-19T07:34:14.044Z,89.62
2017-10-19T07:36:42.814Z,89.14
2017-10-19T07:39:11.189Z,91.42
2017-10-19T07:41:39.558Z,91.44
2017-10-19T07:44:07.929Z,92.02
2017-10-19T07:46:36.297Z,91.49
2017-10-19T07:49:04.674Z,90.80
2017-10-19T07:51:33.759Z,91.98
2017-10-19T07:54:02.947Z,91.33
2017-10-19T07:56:31.361Z,91.67
2017-10-19T07:59:00.602Z,91.53
2017-10-19T08:01:28.980Z,91.70
2017-10-19T08:03:57.349Z,90.66
2017-10-19T08:06:25.729Z,91.34
2017-10-19T08:08:54.210Z,91.63
2017-10-19T08:11:22.591Z,91.68
2017-10-19T08:13:50.974Z,90.66
2017-10-19T08:16:19.352Z,91.30
2017-10-19T08:18:47.717Z,91.21
2017-10-19T08:21:16.100Z,91.29
2017-10-19T08:23:44.466Z,91.87
2017-10-19T08:26:13.643Z,90.32
2017-10-19T08:28:42.017Z,90.11
2017-10-19T08:31:10.381Z,88.84
2017-10-19T08:33:38.744Z,90.81
2017-10-19T08:36:07.130Z,89.86
2017-10-19T08:38:35.507Z,89.14
2017-10-19T08:41:03.876Z,89.52
2017-10-19T08:43:32.243Z,90.85
2017-10-19T08:46:00.604Z,90.01
2017-10-19T08:48:30.534Z,90.35
2017-10-19T08:50:58.901Z,88.87
2017-10-19T08:53:27.308Z,88.09
2017-10-19T08:55:56.373Z,88.03
2017-10-19T08:58:28.025Z,88.08
2017-10-19T09:00:57.164Z,88.47
2017-10-19T09:03:25.533Z,88.72
2017-10-19T09:05:53.913Z,88.55
2017-10-19T09:08:23.873Z,88.59
2017-10-19T09:10:52.298Z,89.61
2017-10-19T09:13:20.669Z,87.96
2017-10-19T09:15:49.042Z,87.24
2017-10-19T09:18:17.421Z,88.09
2017-10-19T09:20:45.799Z,85.82
2017-10-19T09:23:14.181Z,85.41
2017-10-19T09:25:42.565Z,84.55
2017-10-19T09:28:10.936Z,85.80
2017-10-19T09:31:05.839Z,85.64
2017-10-19T09:33:34.220Z,86.15
2017-10-19T09:36:09.419Z,87.23
2017-10-19T09:38:37.792Z,86.97
2017-10-19T09:41:07.058Z,86.23
2017-10-19T09:43:35.433Z,85.58
2017-10-19T09:46:03.826Z,86.63
2017-10-19T09:48:32.196Z,86.02
2017-10-19T09:51:00.590Z,85.99
2017-10-19T09:53:28.962Z,85.47
2017-10-19T09:55:59.275Z,84.62
2017-10-19T09:58:27.650Z,85.03
2017-10-19T10:00:56.017Z,85.26
2017-10-19T10:03:24.392Z,84.40
2017-10-19T10:05:52.770Z,85.24
2017-10-19T10:08:21.193Z,84.59
2017-10-19T10:10:49.572Z,84.02
2017-10-19T10:13:17.954Z,84.23
2017-10-19T10:15:46.350Z,84.51
2017-10-19T10:18:15.482Z,83.37
2017-10-19T10:20:43.849Z,81.32
2017-10-19T10:23:12.229Z,79.90
2017-10-19T10:25:40.599Z,81.04
2017-10-19T10:28:09.129Z,81.16
2017-10-19T10:30:37.494Z,80.75
2017-10-19T10:33:05.871Z,79.24
2017-10-19T10:35:34.249Z,79.08
2017-10-19T10:38:02.834Z,77.76
2017-10-19T10:40:31.291Z,77.68
2017-10-19T10:42:59.653Z,78.30
2017-10-19T10:45:28.036Z,77.46
2017-10-19T10:47:56.479Z,77.49
2017-10-19T10:50:24.901Z,76.52
2017-10-19T10:52:53.265Z,76.50
2017-10-19T10:55:21.660Z,76.42
2017-10-19T10:57:50.030Z,75.92
2017-10-19T11:00:18.408Z,76.31
2017-10-19T11:02:46.782Z,74.60
2017-10-19T11:05:15.161Z,73.70
2017-10-19T11:07:43.529Z,74.15
2017-10-19T11:10:12.676Z,76.04
2017-10-19T11:12:41.051Z,75.07
2017-10-19T11:15:09.422Z,74.05
2017-10-19T11:17:37.779Z,73.58
2017-10-19T11:20:06.146Z,73.51
2017-10-19T11:22:34.526Z,73.21
2017-10-19T11:25:03.661Z,73.46
2017-10-19T11:27:33.022Z,73.94
2017-10-19T11:30:01.390Z,73.87
2017-10-19T11:32:29.782Z,72.69
2017-10-19T11:34:58.153Z,72.27
2017-10-19T11:37:26.533Z,69.93
2017-10-19T11:39:54.899Z,68.38
2017-10-19T11:42:23.306Z,68.69
2017-10-19T11:44:51.672Z,68.76
2017-10-19T11:47:20.041Z,67.61
2017-10-19T11:49:48.432Z,65.63
2017-10-19T11:52:16.805Z,65.04
2017-10-19T11:54:45.314Z,64.78
2017-10-19T11:57:13.752Z,64.29
2017-10-19T11:59:42.141Z,64.15
2017-10-19T12:02:10.510Z,64.62
2017-10-19T12:04:38.883Z,63.20
2017-10-19T12:07:07.251Z,63.71
2017-10-19T12:09:35.625Z,64.15
2017-10-19T12:12:03.988Z,61.93
2017-10-19T12:14:32.357Z,62.39
2017-10-19T12:17:00.728Z,61.23
2017-10-19T12:19:29.086Z,60.17
2017-10-19T12:21:57.469Z,59.84
2017-10-19T12:24:25.843Z,59.06
2017-10-19T12:26:54.205Z,57.52
2017-10-19T12:29:24.442Z,56.80
2017-10-19T12:31:52.813Z,58.76
2017-10-19T12:34:21.217Z,58.59
2017-10-19T12:36:49.573Z,57.83
2017-10-19T12:39:17.938Z,56.24
2017-10-19T12:41:47.089Z,57.69
2017-10-19T12:44:16.378Z,57.32
2017-10-19T12:46:44.761Z,55.63
2017-10-19T12:49:13.145Z,54.73
2017-10-19T12:51:41.522Z,54.73
2017-10-19T12:54:09.895Z,54.61
2017-10-19T12:56:38.273Z,53.76
2017-10-19T12:59:06.645Z,54.06
2017-10-19T13:01:35.039Z,53.85
2017-10-19T13:04:03.409Z,52.99
2017-10-19T13:06:31.775Z,53.44
2017-10-19T13:09:00.151Z,53.43
2017-10-19T13:11:28.516Z,53.52
2017-10-19T13:13:56.884Z,52.91
2017-10-19T13:16:25.264Z,52.37
2017-10-19T13:18:53.630Z,53.45
2017-10-19T13:21:22.759Z,52.26
2017-10-19T13:23:51.121Z,51.76
2017-10-19T13:26:19.499Z,51.28
2017-10-19T13:28:48.525Z,52.06
2017-10-19T13:31:16.949Z,51.15
2017-10-19T13:33:46.093Z,50.03
2017-10-19T13:36:14.474Z,49.28
2017-10-19T13:38:42.847Z,49.03
2017-10-19T13:41:11.232Z,50.05
2017-10-19T13:43:39.606Z,48.37
2017-10-19T13:46:08.633Z,47.36
2017-10-19T13:48:36.999Z,48.37
2017-10-19T13:51:05.376Z,48.93
2017-10-19T13:53:33.743Z,49.45
2017-10-19T13:56:04.247Z,49.88
2017-10-19T13:58:32.613Z,50.83
2017-10-19T14:01:00.992Z,51.77
2017-10-19T14:03:29.369Z,52.26
2017-10-19T14:05:57.745Z,53.77
2017-10-19T14:08:26.879Z,53.31
2017-10-19T14:10:55.253Z,53.13
2017-10-19T14:13:23.629Z,52.52
2017-10-19T14:15:53.749Z,54.00
2017-10-19T14:18:22.119Z,53.67
2017-10-19T14:20:50.490Z,54.46
2017-10-19T14:23:18.878Z,52.10
2017-10-19T14:25:47.253Z,52.09
2017-10-19T14:28:15.617Z,50.87
2017-10-19T14:30:43.972Z,50.00
2017-10-19T14:33:12.345Z,49.10
2017-10-19T14:35:40.713Z,48.87
2017-10-19T14:38:09.105Z,48.73
2017-10-19T14:40:37.485Z,50.93
2017-10-19T14:43:05.861Z,52.96
2017-10-19T14:45:34.233Z,52.09
2017-10-19T14:48:02.653Z,52.34
2017-10-19T14:50:31.026Z,52.69
2017-10-19T14:52:59.399Z,53.65
2017-10-19T14:55:27.782Z,54.29
2017-10-19T14:57:56.166Z,54.27
2017-10-19T15:00:25.400Z,54.11
2017-10-19T15:02:53.766Z,53.78
2017-10-19T15:05:22.136Z,53.71
2017-10-19T15:07:50.509Z,53.58
2017-10-19T15:10:18.873Z,53.90
2017-10-19T15:12:47.249Z,54.89
2017-10-19T15:15:15.620Z,55.24
2017-10-19T15:17:44.823Z,55.50
2017-10-19T15:20:14.061Z,55.25
2017-10-19T15:22:42.433Z,55.31
2017-10-19T15:25:10.799Z,54.72
2017-10-19T15:27:39.165Z,54.64
2017-10-19T15:30:07.521Z,55.87
2017-10-19T15:32:35.914Z,57.02
2017-10-19T15:35:04.290Z,57.83
2017-10-19T15:37:32.666Z,58.34
2017-10-19T15:40:01.048Z,59.43
2017-10-19T15:42:29.462Z,60.50
2017-10-19T15:44:57.837Z,61.97
2017-10-19T15:47:26.221Z,62.70
2017-10-19T15:49:54.601Z,63.47
2017-10-19T15:52:22.978Z,64.00
2017-10-19T15:54:51.352Z,65.09
2017-10-19T15:57:19.737Z,66.17
2017-10-19T15:59:48.125Z,67.30
2017-10-19T16:02:17.005Z,67.82
2017-10-19T16:04:45.432Z,68.37
2017-10-19T16:07:13.805Z,68.52
2017-10-19T16:09:42.169Z,69.34
2017-10-19T16:12:10.542Z,69.75
2017-10-19T16:14:38.902Z,70.12
2017-10-19T16:17:07.287Z,70.33
2017-10-19T16:19:35.657Z,70.86
2017-10-19T16:22:04.025Z,71.40
2017-10-19T16:24:32.404Z,71.94
2017-10-19T16:27:00.778Z,72.73
2017-10-19T16:29:29.155Z,73.36
2017-10-19T16:31:57.522Z,73.35
2017-10-19T16:34:25.884Z,73.35
2017-10-19T16:36:56.538Z,73.72
2017-10-19T16:39:24.907Z,73.71
2017-10-19T16:41:53.826Z,74.17
2017-10-19T16:44:22.202Z,74.57
2017-10-19T16:46:50.565Z,74.92
2017-10-19T16:49:18.953Z,74.66
2017-10-19T16:54:14.968Z,75.85
2017-10-19T16:56:43.328Z,76.84
2017-10-19T16:59:11.705Z,77.86
2017-10-19T17:01:40.085Z,77.55
2017-10-19T17:04:08.458Z,78.99
2017-10-19T17:06:36.835Z,78.72
2017-10-19T17:09:05.213Z,80.27
2017-10-19T17:11:34.401Z,81.36
2017-10-19T17:14:02.766Z,82.08
2017-10-19T17:16:31.148Z,82.98
2017-10-19T17:18:59.526Z,81.99
2017-10-19T17:21:28.301Z,81.82
2017-10-19T17:23:56.665Z,82.04
2017-10-19T17:26:25.069Z,81.64
2017-10-19T17:28:53.447Z,82.24
2017-10-19T17:31:21.839Z,82.10
2017-10-19T17:33:50.217Z,82.35
2017-10-19T17:36:18.596Z,82.07
2017-10-19T17:38:46.973Z,83.04
2017-10-19T17:41:15.343Z,84.00
2017-10-19T17:43:43.722Z,83.34
2017-10-19T17:46:12.109Z,82.94
2017-10-19T17:48:40.484Z,82.71
2017-10-19T17:51:08.845Z,82.48
2017-10-19T17:53:37.205Z,82.60
2017-10-19T17:56:05.576Z,82.61
2017-10-19T17:58:33.941Z,81.64
2017-10-19T18:01:02.311Z,81.39
2017-10-19T18:03:31.609Z,81.23
2017-10-19T18:05:59.985Z,81.40
2017-10-19T18:08:28.417Z,81.55
2017-10-19T18:10:56.786Z,81.90
2017-10-19T18:13:25.194Z,83.16
2017-10-19T18:15:53.571Z,83.77
2017-10-19T18:18:21.986Z,83.34
2017-10-19T18:20:50.371Z,82.91
2017-10-19T18:23:18.744Z,83.09
2017-10-19T18:25:47.595Z,82.60
2017-10-19T18:28:16.005Z,82.60
2017-10-19T18:30:44.846Z,82.95
2017-10-19T18:33:14.054Z,83.29
2017-10-19T18:35:42.445Z,84.23
2017-10-19T18:38:11.182Z,83.80
2017-10-19T18:40:39.606Z,83.33
2017-10-19T18:43:09.901Z,83.37
2017-10-19T18:45:38.453Z,85.04
2017-10-19T18:48:06.859Z,86.06
2017-10-19T18:50:35.234Z,86.73
2017-10-19T18:53:06.099Z,85.83
2017-10-19T18:55:34.626Z,86.34
2017-10-19T18:58:04.071Z,86.22
2017-10-19T19:00:32.437Z,86.05
2017-10-19T19:03:00.805Z,85.13
2017-10-19T19:05:29.170Z,85.18
2017-10-19T19:07:57.558Z,84.75
2017-10-19T19:10:25.934Z,84.34
2017-10-19T19:12:54.325Z,84.95
2017-10-19T19:15:22.703Z,84.80
2017-10-19T19:17:51.085Z,84.54
2017-10-19T19:20:19.778Z,84.77
2017-10-19T19:22:48.425Z,85.18
2017-10-19T19:25:16.848Z,85.02
2017-10-19T19:27:45.249Z,84.98
2017-10-19T19:30:13.640Z,84.42
2017-10-19T19:32:42.792Z,84.15
2017-10-19T19:35:11.225Z,84.47
2017-10-19T19:37:39.596Z,85.18
2017-10-19T19:40:08.753Z,85.70
2017-10-19T19:42:37.134Z,87.63
2017-10-19T19:45:05.783Z,87.42
2017-10-19T19:47:34.157Z,86.93
2017-10-19T19:50:02.546Z,86.38
2017-10-19T19:52:31.484Z,85.48
2017-10-19T19:55:00.821Z,85.01
2017-10-19T19:57:29.246Z,85.14
2017-10-19T19:59:57.629Z,85.01
2017-10-19T20:02:25.992Z,86.53
2017-10-19T20:04:54.353Z,86.61
2017-10-19T20:07:23.311Z,87.19
2017-10-19T20:09:52.504Z,86.11
2017-10-19T20:12:20.883Z,85.96
2017-10-19T20:14:50.051Z,85.57
2017-10-19T20:17:18.976Z,85.57
2017-10-19T20:19:48.116Z,85.63
2017-10-19T20:22:16.749Z,85.93
2017-10-19T20:24:45.122Z,86.14
2017-10-19T20:27:13.488Z,86.04
2017-10-19T20:29:41.845Z,86.87
2017-10-19T20:32:10.217Z,86.49
2017-10-19T20:34:38.617Z,86.19
2017-10-19T20:37:07.052Z,85.61
2017-10-19T20:39:35.432Z,86.89
2017-10-19T20:42:03.805Z,86.70
2017-10-19T20:44:32.186Z,85.89
2017-10-19T20:47:00.581Z,85.61
2017-10-19T20:49:28.948Z,85.31
2017-10-19T20:51:57.316Z,85.47
2017-10-19T20:54:25.680Z,85.47
2017-10-19T20:56:54.040Z,85.66
2017-10-19T20:59:22.425Z,86.60
2017-10-19T21:01:50.796Z,86.33
2017-10-19T21:04:19.157Z,86.18
2017-10-19T21:06:47.533Z,86.00
2017-10-19T21:09:15.915Z,86.54
2017-10-19T21:11:44.288Z,88.10
2017-10-19T21:14:12.667Z,91.54
2017-10-19T21:16:41.344Z,89.52
2017-10-19T21:19:09.721Z,88.78
2017-10-19T21:21:38.105Z,88.33
2017-10-19T21:24:06.473Z,88.60
2017-10-19T21:26:34.855Z,88.18
2017-10-19T21:29:03.237Z,88.65
2017-10-19T21:31:31.620Z,88.71
2017-10-19T21:33:59.990Z,88.54
2017-10-19T21:36:28.385Z,88.33
2017-10-19T21:38:56.775Z,88.20
2017-10-19T21:41:25.146Z,88.15
2017-10-19T21:43:53.519Z,88.42
2017-10-19T21:46:21.887Z,88.99
2017-10-19T21:48:50.253Z,88.25
2017-10-19T21:51:18.626Z,88.17
2017-10-19T21:53:46.989Z,88.51
2017-10-19T21:56:15.364Z,88.13
2017-10-19T21:58:44.494Z,87.90
2017-10-19T22:01:12.880Z,87.69
2017-10-19T22:03:41.246Z,87.45
2017-10-19T22:06:09.613Z,87.22
2017-10-19T22:08:37.977Z,86.84
2017-10-19T22:11:06.337Z,85.91
2017-10-19T22:13:35.340Z,87.06
2017-10-19T22:16:05.070Z,86.46
2017-10-19T22:18:33.483Z,86.61
2017-10-19T22:21:01.910Z,86.01
2017-10-19T22:23:31.881Z,85.49
2017-10-19T22:26:00.250Z,85.88
2017-10-19T22:28:28.616Z,85.65
2017-10-19T22:30:56.997Z,85.32
2017-10-19T22:33:25.370Z,85.14
2017-10-19T22:35:53.746Z,85.63
2017-10-19T22:38:22.114Z,86.11
2017-10-19T22:40:50.485Z,86.17
2017-10-19T22:43:18.872Z,86.46
2017-10-19T22:45:47.260Z,87.04
2017-10-19T22:48:15.621Z,87.31
2017-10-19T22:50:44.751Z,86.76
2017-10-19T22:53:13.147Z,86.70
2017-10-19T22:55:41.510Z,86.67
2017-10-19T22:58:09.881Z,87.13
2017-10-19T23:00:38.263Z,87.83
2017-10-19T23:03:06.655Z,88.04
2017-10-19T23:05:35.030Z,89.21
2017-10-19T23:08:03.408Z,89.30
2017-10-19T23:10:31.777Z,89.84
2017-10-19T23:13:00.158Z,90.05
2017-10-19T23:15:28.535Z,89.72
2017-10-19T23:17:56.916Z,89.64
2017-10-19T23:20:25.313Z,89.88
2017-10-19T23:22:53.694Z,89.68
2017-10-19T23:25:22.077Z,89.86
2017-10-19T23:27:50.670Z,90.26
2017-10-19T23:30:19.049Z,89.57
2017-10-19T23:32:48.191Z,89.70
2017-10-19T23:35:16.553Z,89.33
2017-10-19T23:37:44.929Z,89.66
2017-10-19T23:40:13.334Z,89.58
2017-10-19T23:42:41.726Z,90.86
2017-10-19T23:45:10.104Z,90.95
2017-10-19T23:47:38.477Z,90.53
2017-10-19T23:50:06.856Z,90.26
2017-10-19T23:52:35.229Z,89.91
2017-10-19T23:55:03.607Z,89.65
2017-10-19T23:57:31.964Z,89.15
